Devils Lake, ND (58301)

5:47 AM CDT on March 27, 2017 (GMT -0500)
Ackerman's Acres | | Change Station
Active Advisory: Dense Fog Advisory

Elev 1444 ft 48.10 °N, 98.82 °W | Updated 26 seconds ago

Overcast
Overcast
30.8 °F
Feels Like 27 °F
N
4.0
Wind Variable Wind from East

Today
High -- | Low -- °F
--% Chance of Precip.
Yesterday
High -- | Low -- °F
Precip. -- in
Pressure 29.92 in
Visibility 0.8 miles
Clouds Overcast 200 ft
Windchill 27 °F
Dew Point 30 °F
Humidity 98%
Rainfall 0.00 in
Snow Depth Not available.
7:23 AM 7:58 PM
Waning Crescent, 1% visible
SPECI KDVL 271041Z AUTO 13004KT 3/4SM BR OVC002 M01/M01 A2992 RMK AO2 SNE04 P0000 FZRANO
Pressure 29.92 in
Visibility 0.8 miles
Clouds Overcast 200 ft
Windchill 27 °F
Dew Point 30 °F
Humidity 98%
Rainfall 0.00 in
Snow Depth Not available.
7:23 AM 7:58 PM
Waning Crescent, 1% visible
SPECI KDVL 271041Z AUTO 13004KT 3/4SM BR OVC002 M01/M01 A2992 RMK AO2 SNE04 P0000 FZRANO

Get Your Daily Forecast Email!

Thanks for signing up!

Be on the lookout for a verification email in your inbox.

You'll start receiving severe weather alerts in your inbox..

×

10-Day Weather Forecast

Almanac

Astronomy

Mar. 27, 2017 Rise Set
Actual Time
Civil Twilight
Nautical Twilight
Astronomical Twilight
Moon
Length of Visible Light
Length of Day
Tomorrow will be .
, % of the Moon is Illuminated

Today's Extremes

State Highs State Lows

Community

WunderPhotos

Upload Photos

1,962,540 photos uploaded!

WunderBlog® & News

Nearby

Air Quality

  Air Quality AQ Index Pollutant
Not available.

Snow Depth

Station Depth Elevation

Earthquake Activity

City Distance Mag. Time & Date
Minimum magnitude displayed is 2.5.

Earthquake Activity

City Distance Mag. Time & Date
Minimum magnitude displayed is 2.5.

Coastal Water Temperatures

Place Temperature

Stations

Nearby Weather Stations

Station Location Temp. Windchill Dew Point Humidity Wind Precip. Elev Updated Type
                   

Watches & Warnings

Dense Fog Advisory
Issued: 3:20 AM CDT Mar. 27, 2017 – National Weather Service

... Dense fog advisory remains in effect until noon CDT today...

* visibilities... less than a quarter mile.

* Impacts... limited visibilities will make travel very difficult.

Precautionary/preparedness actions...

A dense fog advisory means visibilities will frequently be
reduced to less than one quarter mile. If driving, slow down, use
your headlights, and leave plenty of distance ahead of you.